Darstellungsparameter: Aktuell verwendete Einstellungen:
Skalierung der Graphiken ... ?
xyx+y,   Skalierungsfaktor:      Skalierung: Modus: x, Faktor: 1
Darstellungszeitraum ... ?
Vom - - bis: - -   Zeitraum: 16.02.2018 - 15.02.2019
Min/Max/Avg-Anzeige ... ?
Zeige MMA aktuell
Zeige MMA Monat
Zeige MMA alles
Zeige --A aktuell
Zeige --A Monat
Zeige --A alles
Keine MMA-Anzeige
MMA:
Minimum Maximum Average (ber die Originaldaten)
MMA-Basis: 16.02.2018 - 15.02.2019
Quicknavigation für Darstellung... ?
Tage:      1T, 2T, 3T, 5T -1T -2T -3T -5T +1T +2T +3T +5T
Wochen: 1W, 2W, 3W -1W -2W -3W +1W +2W +3W
Monate: 1M, 3M, 6M -1M -3M -6M +1M +3M +6M
Jahre:    1J, 3J, 5J, 10J -1J -3J -5J -10J +1J +3J +5J +10J
Nutze für die Darstellung ... ?
Originaldaten oder ...
Mittelwerte Minima Maxima auf...
Stundenbasis Tagesbasis Wochenbasis
Monatsbasis Jahresbasis      Datenbasis: Mittelwerte auf Tagesbasis
Darstellen als:
Statistik (Auto) Statistik J:M      Darstellung:
Zur Graphik,    zurück zur Übersicht aller Sensoren.
 
Tabellarische Datenbersicht: ?
 
Sensor: Nr:Datum:Temp:Feuchte:Taupunkt:
Aussen-T/F 1 16-02-2018 00:00:00 2.01597 C 96.2500 % 1.48 C
2 17-02-2018 00:00:00 0.40521 C 93.6354 % -0.5 C
3 18-02-2018 00:00:00 -1.01701 C 92.6701 % -2.05 C
4 19-02-2018 00:00:00 1.11667 C 88.7049 % -0.53 C
5 20-02-2018 00:00:00 0.74271 C 87.0313 % -1.16 C
6 21-02-2018 00:00:00 1.21181 C 77.1493 % -2.34 C
7 22-02-2018 00:00:00 -0.03507 C 74.0938 % -4.09 C
8 23-02-2018 00:00:00 -0.725 C 62.2674 % -7.03 C
9 24-02-2018 00:00:00 -1.57049 C 63.0625 % -7.67 C
10 25-02-2018 00:00:00 -2.70729 C 52.6701 % -11.03 C
11 26-02-2018 00:00:00 -4.18854 C 66.9375 % -9.4 C
12 27-02-2018 00:00:00 -6.00417 C 70.8264 % -10.43 C
13 28-02-2018 00:00:00 -6.7066 C 65.9757 % -11.99 C
14 01-03-2018 00:00:00 -2.91424 C 54.5035 % -10.79 C
15 02-03-2018 00:00:00 -2.40208 C 62.9826 % -8.48 C
16 03-03-2018 00:00:00 -0.40937 C 89.6736 % -1.89 C
17 04-03-2018 00:00:00 4.02986 C 90.9965 % 2.7 C
18 05-03-2018 00:00:00 5.96979 C 85.9965 % 3.81 C
19 06-03-2018 00:00:00 4.90694 C 86.9583 % 2.92 C
20 07-03-2018 00:00:00 5.39792 C 90.0556 % 3.9 C
21 08-03-2018 00:00:00 6.19653 C 83.8368 % 3.67 C
22 09-03-2018 00:00:00 5.56528 C 93.9514 % 4.67 C
23 10-03-2018 00:00:00 10.03125 C 92.4792 % 8.87 C
24 11-03-2018 00:00:00 10.51493 C 91.3854 % 9.17 C
25 12-03-2018 00:00:00 9.7 C 90.2813 % 8.19 C
Sensor: Nr:Datum:Temp:Feuchte:Taupunkt:
Aussen-T/F 26 13-03-2018 00:00:00 7.76667 C 88.1215 % 5.93 C
27 14-03-2018 00:00:00 6.86458 C 83.6076 % 4.29 C
28 15-03-2018 00:00:00 6.40382 C 83.6319 % 3.84 C
29 16-03-2018 00:00:00 7.64097 C 94.7813 % 6.86 C
30 17-03-2018 00:00:00 -0.44516 C 83.0573 % -2.96 C
31 18-03-2018 00:00:00 -1.64028 C 75.3299 % -5.42 C
32 19-03-2018 00:00:00 -0.54479 C 65.7778 % -6.15 C
33 20-03-2018 00:00:00 0.29653 C 73.5035 % -3.87 C
34 21-03-2018 00:00:00 1.2059 C 76.4132 % -2.47 C
35 22-03-2018 00:00:00 3.06319 C 89.6667 % 1.54 C
36 23-03-2018 00:00:00 6.14028 C 89.0799 % 4.48 C
37 24-03-2018 00:00:00 5.20069 C 79.8715 % 2.02 C
38 25-03-2018 00:00:00 5.42862 C 76.5217 % 1.64 C
39 26-03-2018 00:00:00 7.61146 C 73.0313 % 3.1 C
40 27-03-2018 00:00:00 5.82222 C 83.6181 % 3.27 C
41 28-03-2018 00:00:00 8.50799 C 92.0278 % 7.29 C
42 29-03-2018 00:00:00 7.11424 C 75.6701 % 3.12 C
43 30-03-2018 00:00:00 6.82813 C 81.6910 % 3.92 C
44 31-03-2018 00:00:00 8.09792 C 78.7083 % 4.63 C
45 01-04-2018 00:00:00 7.66979 C 81.5451 % 4.72 C
46 02-04-2018 00:00:00 8.78611 C 74.8715 % 4.58 C
47 03-04-2018 00:00:00 13.35 C 67.7257 % 7.51 C
48 04-04-2018 00:00:00 11.17187 C 85.0486 % 8.76 C
49 05-04-2018 00:00:00 8.16042 C 84.2049 % 5.66 C
50 06-04-2018 00:00:00 6.97187 C 72.9167 % 2.46 C
Sensor: Nr:Datum:Temp:Feuchte:Taupunkt:
Aussen-T/F 51 07-04-2018 00:00:00 12.50035 C 66.5174 % 6.44 C
52 08-04-2018 00:00:00 14.90417 C 67.3368 % 8.91 C
53 09-04-2018 00:00:00 13.73333 C 72.7188 % 8.93 C
54 10-04-2018 00:00:00 13.3816 C 78.1875 % 9.66 C
55 11-04-2018 00:00:00 11.50035 C 87.5035 % 9.5 C
56 12-04-2018 00:00:00 13.06493 C 80.5000 % 9.79 C
57 13-04-2018 00:00:00 10.32188 C 88.1458 % 8.45 C
58 14-04-2018 00:00:00 13.08403 C 76.3056 % 9.01 C
59 15-04-2018 00:00:00 14.37465 C 81.8542 % 11.32 C
60 16-04-2018 00:00:00 13.42882 C 78.5417 % 9.78 C
61 17-04-2018 00:00:00 13.72569 C 74.7569 % 9.33 C
62 18-04-2018 00:00:00 15.73264 C 69.7882 % 10.23 C
63 19-04-2018 00:00:00 17.21806 C 66.2847 % 10.88 C
64 20-04-2018 00:00:00 17.08681 C 67.8229 % 11.1 C
65 21-04-2018 00:00:00 18.09931 C 71.2639 % 12.82 C
66 22-04-2018 00:00:00 18.53681 C 73.1042 % 13.63 C
67 23-04-2018 00:00:00 18.01181 C 70.6181 % 12.6 C
68 24-04-2018 00:00:00 14.03854 C 72.5938 % 9.2 C
69 25-04-2018 00:00:00 13.47917 C 75.5694 % 9.25 C
70 26-04-2018 00:00:00 11.09167 C 65.0868 % 4.79 C
71 27-04-2018 00:00:00 11.96181 C 67.8333 % 6.21 C
72 28-04-2018 00:00:00 12.62917 C 72.8854 % 7.9 C
73 29-04-2018 00:00:00 14.24792 C 85.8194 % 11.91 C
74 30-04-2018 00:00:00 13.44931 C 77.7604 % 9.65 C
75 01-05-2018 00:00:00 9.59063 C 69.6354 % 4.32 C
Sensor: Nr:Datum:Temp:Feuchte:Taupunkt:
Aussen-T/F 76 02-05-2018 00:00:00 9.44549 C 75.6910 % 5.38 C
77 03-05-2018 00:00:00 12.35347 C 68.5729 % 6.74 C
78 04-05-2018 00:00:00 13.14618 C 65.4722 % 6.83 C
79 05-05-2018 00:00:00 15.50764 C 61.2708 % 8.09 C
80 06-05-2018 00:00:00 17.0059 C 57.6563 % 8.6 C
81 07-05-2018 00:00:00 17.60312 C 61.7674 % 10.19 C
82 08-05-2018 00:00:00 18.08264 C 62.5556 % 10.83 C
83 09-05-2018 00:00:00 17.125 C 71.3160 % 11.89 C
84 10-05-2018 00:00:00 14.09271 C 87.0729 % 11.98 C
85 11-05-2018 00:00:00 14.47951 C 77.2778 % 10.55 C
86 12-05-2018 00:00:00 16.39236 C 75.1597 % 11.99 C
87 13-05-2018 00:00:00 14.62278 C 93.1317 % 13.53 C
88 14-05-2018 00:00:00 16.77361 C 89.0556 % 14.96 C
89 15-05-2018 00:00:00 15.91597 C 75.1875 % 11.53 C
90 16-05-2018 00:00:00 15.4941 C 83.2118 % 12.66 C
91 17-05-2018 00:00:00 13.78333 C 73.6285 % 9.16 C
92 18-05-2018 00:00:00 12.14792 C 74.4757 % 7.75 C
93 19-05-2018 00:00:00 13.63299 C 73.7118 % 9.03 C
94 20-05-2018 00:00:00 14.00278 C 84.2917 % 11.4 C
95 21-05-2018 00:00:00 17.43819 C 78.1806 % 13.6 C
96 22-05-2018 00:00:00 16.97917 C 82.6944 % 14.02 C
97 23-05-2018 00:00:00 17.30243 C 88.5104 % 15.39 C
98 24-05-2018 00:00:00 17.125 C 87.8507 % 15.1 C
99 25-05-2018 00:00:00 19.81944 C 80.2535 % 16.32 C
100 26-05-2018 00:00:00 20.84826 C 76.3958 % 16.54 C
Sensor: Nr:Datum:Temp:Feuchte:Taupunkt:
Aussen-T/F 101 27-05-2018 00:00:00 20.3191 C 81.4236 % 17.03 C
102 28-05-2018 00:00:00 21.47083 C 81.6424 % 18.2 C
103 29-05-2018 00:00:00 20.77292 C 85.9514 % 18.34 C
104 30-05-2018 00:00:00 21.53403 C 77.5799 % 17.45 C
105 31-05-2018 00:00:00 22.62083 C 74.5313 % 17.86 C
106 01-06-2018 00:00:00 19.10729 C 88.6667 % 17.19 C
107 02-06-2018 00:00:00 19.22917 C 81.5243 % 15.99 C
108 03-06-2018 00:00:00 19.42708 C 77.5903 % 15.41 C
109 04-06-2018 00:00:00 20.95938 C 74.2257 % 16.2 C
110 05-06-2018 00:00:00 20.70035 C 77.2569 % 16.58 C
111 06-06-2018 00:00:00 21.09375 C 74.2222 % 16.33 C
112 07-06-2018 00:00:00 21.15174 C 80.5868 % 17.68 C
113 08-06-2018 00:00:00 20.94375 C 84.2361 % 18.18 C
114 09-06-2018 00:00:00 21.9125 C 83.9896 % 19.08 C
115 10-06-2018 00:00:00 21.38239 C 86.1831 % 18.98 C
116 11-06-2018 00:00:00 19.19444 C 93.4549 % 18.11 C
117 12-06-2018 00:00:00 16.41979 C 90.3194 % 14.83 C
118 13-06-2018 00:00:00 14.8941 C 79.6285 % 11.41 C
119 14-06-2018 00:00:00 14.94132 C 80.6806 % 11.65 C
120 15-06-2018 00:00:00 17.84236 C 88.0243 % 15.83 C
121 16-06-2018 00:00:00 19.99306 C 78.6493 % 16.17 C
122 17-06-2018 00:00:00 17.94167 C 75.1979 % 13.49 C
123 18-06-2018 00:00:00 17.81667 C 77.9757 % 13.93 C
124 19-06-2018 00:00:00 18.89201 C 84.5799 % 16.24 C
125 20-06-2018 00:00:00 23.07639 C 72.0069 % 17.75 C
Sensor: Nr:Datum:Temp:Feuchte:Taupunkt:
Aussen-T/F 126 21-06-2018 00:00:00 17.92639 C 69.4514 % 12.26 C
127 22-06-2018 00:00:00 13.74097 C 68.4549 % 8.04 C
128 23-06-2018 00:00:00 13.76424 C 76.4514 % 9.7 C
129 24-06-2018 00:00:00 15.88264 C 72.8299 % 11.02 C
130 25-06-2018 00:00:00 17.09201 C 78.1806 % 13.26 C
131 26-06-2018 00:00:00 17.67396 C 74.6806 % 13.13 C
132 27-06-2018 00:00:00 19.15694 C 67.6979 % 13.05 C
133 28-06-2018 00:00:00 20.71076 C 61.1806 % 12.97 C
134 29-06-2018 00:00:00 24.11424 C 56.0451 % 14.8 C
135 30-06-2018 00:00:00 22.06215 C 56.9201 % 13.13 C
136 01-07-2018 00:00:00 20.86597 C 42.7396 % 7.74 C
137 02-07-2018 00:00:00 20.44792 C 45.9861 % 8.44 C
138 03-07-2018 00:00:00 20.73299 C 50.1319 % 9.98 C
139 04-07-2018 00:00:00 18.84167 C 80.7778 % 15.47 C
140 05-07-2018 00:00:00 19.41111 C 88.5799 % 17.48 C
141 06-07-2018 00:00:00 20.03056 C 75.7014 % 15.61 C
142 07-07-2018 00:00:00 20.66701 C 67.2326 % 14.38 C
143 08-07-2018 00:00:00 19.71181 C 58.3160 % 11.3 C
144 09-07-2018 00:00:00 19.32361 C 67.3299 % 13.12 C
145 10-07-2018 00:00:00 17.13715 C 73.0729 % 12.28 C
146 11-07-2018 00:00:00 16.10729 C 82.2396 % 13.08 C
147 12-07-2018 00:00:00 19.59688 C 80.3924 % 16.13 C
148 13-07-2018 00:00:00 19.71166 C 77.4240 % 15.65 C
149 14-07-2018 00:00:00 21.51493 C 67.9236 % 15.34 C
150 15-07-2018 00:00:00 21.63021 C 64.0521 % 14.54 C
Sensor: Nr:Datum:Temp:Feuchte:Taupunkt:
Aussen-T/F 151 16-07-2018 00:00:00 22.30868 C 61.5347 % 14.56 C
152 17-07-2018 00:00:00 21.01771 C 65.8507 % 14.39 C
153 18-07-2018 00:00:00 20.29479 C 65.8750 % 13.71 C
154 19-07-2018 00:00:00 20.92431 C 60.5069 % 13 C
155 20-07-2018 00:00:00 21.5559 C 61.6319 % 13.88 C
156 21-07-2018 00:00:00 20.6125 C 77.3958 % 16.52 C
157 22-07-2018 00:00:00 21.61458 C 70.0486 % 15.92 C
158 23-07-2018 00:00:00 22.37917 C 67.0868 % 15.97 C
159 24-07-2018 00:00:00 23.70278 C 63.7465 % 16.43 C
160 25-07-2018 00:00:00 25.50069 C 57.3160 % 16.44 C
161 26-07-2018 00:00:00 27.18785 C 54.2326 % 17.14 C
162 27-07-2018 00:00:00 26.11146 C 50.4861 % 15.03 C
163 28-07-2018 00:00:00 21.97743 C 76.3924 % 17.63 C
164 29-07-2018 00:00:00 23.50521 C 66.0451 % 16.8 C
165 30-07-2018 00:00:00 24.29931 C 64.4410 % 17.16 C
166 31-07-2018 00:00:00 25.46875 C 61.9722 % 17.65 C
167 01-08-2018 00:00:00 20.74271 C 87.4931 % 18.59 C
168 02-08-2018 00:00:00 23.73056 C 74.2257 % 18.87 C
169 03-08-2018 00:00:00 26.4684 C 61.0278 % 18.34 C
170 04-08-2018 00:00:00 26.38714 C 57.9821 % 17.45 C
171 05-08-2018 00:00:00 24.70486 C 59.6424 % 16.32 C
172 06-08-2018 00:00:00 24.16944 C 57.6563 % 15.29 C
173 07-08-2018 00:00:00 26.73646 C 55.5104 % 17.09 C
174 08-08-2018 00:00:00 25.29618 C 61.3021 % 17.31 C
175 09-08-2018 00:00:00 20.57778 C 82.7639 % 17.54 C
Sensor: Nr:Datum:Temp:Feuchte:Taupunkt:
Aussen-T/F 176 10-08-2018 00:00:00 18.35486 C 65.3924 % 11.76 C
177 11-08-2018 00:00:00 18.37083 C 59.8611 % 10.44 C
178 12-08-2018 00:00:00 18.15451 C 63.0729 % 11.02 C
179 13-08-2018 00:00:00 17.68854 C 81.8924 % 14.56 C
180 14-08-2018 00:00:00 18.53958 C 84.6563 % 15.91 C
181 15-08-2018 00:00:00 19.375 C 79.2465 % 15.69 C
182 16-08-2018 00:00:00 20.74444 C 71.2743 % 15.36 C
183 17-08-2018 00:00:00 19.75903 C 76.6632 % 15.54 C
184 18-08-2018 00:00:00 18.88785 C 68.7326 % 13.02 C
185 19-08-2018 00:00:00 20.30521 C 67.4132 % 14.07 C
186 20-08-2018 00:00:00 20.84444 C 73.5938 % 15.95 C
187 21-08-2018 00:00:00 21.96979 C 70.6528 % 16.39 C
188 22-08-2018 00:00:00 23.24757 C 65.7500 % 16.48 C
189 23-08-2018 00:00:00 22.88681 C 69.0660 % 16.91 C
190 24-08-2018 00:00:00 19.03368 C 65.5556 % 12.44 C
191 25-08-2018 00:00:00 14.525 C 69.8438 % 9.09 C
192 26-08-2018 00:00:00 13.80556 C 67.7882 % 7.96 C
193 27-08-2018 00:00:00 18.12604 C 70.1493 % 12.6 C
194 28-08-2018 00:00:00 18.12917 C 67.6632 % 12.06 C
195 29-08-2018 00:00:00 17.15556 C 80.1528 % 13.71 C
196 30-08-2018 00:00:00 17.22778 C 75.0799 % 12.78 C
197 31-08-2018 00:00:00 15.05521 C 72.2951 % 10.11 C
198 01-09-2018 00:00:00 14.30833 C 69.0799 % 8.72 C
199 02-09-2018 00:00:00 14.27188 C 76.5347 % 10.21 C
200 03-09-2018 00:00:00 18.05417 C 80.5556 % 14.66 C
Sensor: Nr:Datum:Temp:Feuchte:Taupunkt:
Aussen-T/F 201 04-09-2018 00:00:00 20.01736 C 79.3507 % 16.33 C
202 05-09-2018 00:00:00 20.91701 C 73.3229 % 15.97 C
203 06-09-2018 00:00:00 18.07014 C 87.7049 % 16 C
204 07-09-2018 00:00:00 15.72639 C 86.9479 % 13.56 C
205 08-09-2018 00:00:00 13.53889 C 76.5139 % 9.49 C
206 09-09-2018 00:00:00 16.94236 C 70.6667 % 11.58 C
207 10-09-2018 00:00:00 17.5 C 71.7396 % 12.34 C
208 11-09-2018 00:00:00 18.85868 C 70.4028 % 13.36 C
209 12-09-2018 00:00:00 19.08646 C 71.2882 % 13.77 C
210 13-09-2018 00:00:00 16.3625 C 85.6632 % 13.96 C
211 14-09-2018 00:00:00 16.95174 C 71.3056 % 11.73 C
212 15-09-2018 00:00:00 15.14028 C 70.3368 % 9.78 C
213 16-09-2018 00:00:00 14.7184 C 71.4063 % 9.6 C
214 17-09-2018 00:00:00 16.79306 C 68.7813 % 11.03 C
215 18-09-2018 00:00:00 19.05208 C 70.2292 % 13.51 C
216 19-09-2018 00:00:00 20.67951 C 71.7535 % 15.4 C
217 20-09-2018 00:00:00 19.17153 C 72.3785 % 14.09 C
218 21-09-2018 00:00:00 15.93472 C 78.7778 % 12.26 C
219 22-09-2018 00:00:00 12.7566 C 77.2465 % 8.88 C
220 23-09-2018 00:00:00 12.33056 C 94.4167 % 11.46 C
221 24-09-2018 00:00:00 9.92396 C 85.7674 % 7.66 C
222 25-09-2018 00:00:00 8.38785 C 85.7431 % 6.14 C
223 26-09-2018 00:00:00 8.82917 C 82.7153 % 6.06 C
224 27-09-2018 00:00:00 11.32708 C 83.9236 % 8.71 C
225 28-09-2018 00:00:00 10.18526 C 91.0982 % 8.8 C
Sensor: Nr:Datum:Temp:Feuchte:Taupunkt:
Aussen-T/F 226 29-09-2018 00:00:00 8.2941 C 81.8056 % 5.37 C
227 30-09-2018 00:00:00 7.9427 C 82.6726 % 5.18 C
228 01-10-2018 00:00:00 9.71701 C 81.2778 % 6.67 C
229 02-10-2018 00:00:00 9.17604 C 87.5625 % 7.22 C
230 03-10-2018 00:00:00 12.2809 C 82.0521 % 9.31 C
231 04-10-2018 00:00:00 9.78056 C 87.1875 % 7.75 C
232 05-10-2018 00:00:00 10.63021 C 88.2743 % 8.77 C
233 06-10-2018 00:00:00 12.7691 C 89.0000 % 11 C
234 07-10-2018 00:00:00 13.00243 C 89.0833 % 11.25 C
235 08-10-2018 00:00:00 10.50347 C 88.5521 % 8.69 C
236 09-10-2018 00:00:00 11.75035 C 91.4340 % 10.4 C
237 10-10-2018 00:00:00 13.21285 C 90.3646 % 11.67 C
238 11-10-2018 00:00:00 14.21701 C 88.2674 % 12.31 C
239 12-10-2018 00:00:00 15.87882 C 86.2604 % 13.59 C
240 13-10-2018 00:00:00 15.57986 C 84.2257 % 12.93 C
241 14-10-2018 00:00:00 14.79965 C 83.0174 % 11.95 C
242 15-10-2018 00:00:00 13.825 C 84.5903 % 11.28 C
243 16-10-2018 00:00:00 12.87292 C 86.4653 % 10.67 C
244 17-10-2018 00:00:00 12.82847 C 88.3368 % 10.95 C
245 18-10-2018 00:00:00 14.04618 C 88.4722 % 12.17 C
246 19-10-2018 00:00:00 12.08785 C 87.8889 % 10.14 C
247 20-10-2018 00:00:00 11.03542 C 86.2431 % 8.83 C
248 21-10-2018 00:00:00 7.3066 C 91.4479 % 6.01 C
249 22-10-2018 00:00:00 7.67014 C 90.5417 % 6.22 C
250 23-10-2018 00:00:00 9.04306 C 84.6944 % 6.61 C
Sensor: Nr:Datum:Temp:Feuchte:Taupunkt:
Aussen-T/F 251 24-10-2018 00:00:00 14.07604 C 86.3472 % 11.83 C
252 25-10-2018 00:00:00 12.94722 C 83.3368 % 10.19 C
253 26-10-2018 00:00:00 10.21354 C 80.8299 % 7.07 C
254 27-10-2018 00:00:00 6.27118 C 90.9340 % 4.9 C
255 28-10-2018 00:00:00 5.67778 C 83.1424 % 3.05 C
256 29-10-2018 00:00:00 6.43264 C 84.8160 % 4.07 C
257 30-10-2018 00:00:00 6.2809 C 91.5868 % 5.02 C
258 31-10-2018 00:00:00 7.45382 C 86.8194 % 5.41 C
259 01-11-2018 00:00:00 6.13194 C 95.0799 % 5.4 C
260 02-11-2018 00:00:00 8.86597 C 94.0486 % 7.96 C
261 03-11-2018 00:00:00 3.50521 C 96.4549 % 3 C
262 04-11-2018 00:00:00 6.86007 C 95.2361 % 6.15 C
263 05-11-2018 00:00:00 10.39097 C 92.1042 % 9.17 C
264 06-11-2018 00:00:00 8.41806 C 95.6667 % 7.77 C
265 07-11-2018 00:00:00 9.32118 C 92.4167 % 8.16 C
266 08-11-2018 00:00:00 10.425 C 89.0660 % 8.7 C
267 09-11-2018 00:00:00 9.62604 C 92.9861 % 8.55 C
268 10-11-2018 00:00:00 11.90347 C 90.1250 % 10.34 C
269 11-11-2018 00:00:00 12.04618 C 90.5972 % 10.56 C
270 12-11-2018 00:00:00 13.70069 C 90.0278 % 12.1 C
271 13-11-2018 00:00:00 10.46076 C 92.4965 % 9.3 C
272 14-11-2018 00:00:00 6.18264 C 96.5938 % 5.68 C
273 15-11-2018 00:00:00 6.9816 C 91.5660 % 5.71 C
274 16-11-2018 00:00:00 5.92778 C 89.7882 % 4.38 C
275 17-11-2018 00:00:00 2.75417 C 88.6667 % 1.07 C
Sensor: Nr:Datum:Temp:Feuchte:Taupunkt:
Aussen-T/F 276 18-11-2018 00:00:00 1.8566 C 79.8333 % -1.25 C
277 19-11-2018 00:00:00 3.57014 C 81.2153 % 0.66 C
278 20-11-2018 00:00:00 3.50972 C 80.1910 % 0.43 C
279 21-11-2018 00:00:00 2.50312 C 88.6979 % 0.83 C
280 22-11-2018 00:00:00 2.91458 C 88.0903 % 1.14 C
281 23-11-2018 00:00:00 0.10868 C 95.3785 % -0.54 C
282 24-11-2018 00:00:00 4.74792 C 96.2674 % 4.21 C
283 25-11-2018 00:00:00 5.98785 C 95.8785 % 5.38 C
284 26-11-2018 00:00:00 6.65625 C 87.8958 % 4.8 C
285 27-11-2018 00:00:00 4.12465 C 83.8368 % 1.64 C
286 28-11-2018 00:00:00 3.7 C 91.6667 % 2.47 C
287 29-11-2018 00:00:00 5.67875 C 92.7735 % 4.6 C
288 30-11-2018 00:00:00 7.44514 C 94.6875 % 6.65 C
289 01-12-2018 00:00:00 7.48993 C 91.5833 % 6.21 C
290 02-12-2018 00:00:00 11.28056 C 93.0868 % 10.21 C
291 03-12-2018 00:00:00 11.76701 C 95.7708 % 11.11 C
292 04-12-2018 00:00:00 6.48715 C 90.9653 % 5.12 C
293 05-12-2018 00:00:00 3.60729 C 96.1806 % 3.06 C
294 06-12-2018 00:00:00 9.76042 C 93.8924 % 8.83 C
295 07-12-2018 00:00:00 11.22882 C 86.6667 % 9.09 C
296 08-12-2018 00:00:00 7.97361 C 88.5035 % 6.19 C
297 09-12-2018 00:00:00 8.02544 C 87.9756 % 6.16 C
298 10-12-2018 00:00:00 4.96771 C 91.2639 % 3.67 C
299 11-12-2018 00:00:00 3.84375 C 93.7118 % 2.93 C
300 12-12-2018 00:00:00 2.70801 C 95.4948 % 2.06 C
Sensor: Nr:Datum:Temp:Feuchte:Taupunkt:
Aussen-T/F 301 13-12-2018 00:00:00 1.36181 C 87.4618 % -0.49 C
302 14-12-2018 00:00:00 1.15521 C 77.4757 % -2.33 C
303 15-12-2018 00:00:00 0.62683 C 78.6202 % -2.65 C
304 16-12-2018 00:00:00 0.77743 C 90.5382 % -0.59 C
305 17-12-2018 00:00:00 4.19722 C 94.8194 % 3.44 C
306 18-12-2018 00:00:00 5.08229 C 90.2917 % 3.63 C
307 19-12-2018 00:00:00 6.54495 C 88.8537 % 4.84 C
308 20-12-2018 00:00:00 7.58741 C 89.6818 % 6 C
309 21-12-2018 00:00:00 10.78507 C 86.4514 % 8.62 C
310 22-12-2018 00:00:00 9.94266 C 85.9091 % 7.7 C
311 23-12-2018 00:00:00 8.60868 C 93.6563 % 7.65 C
312 24-12-2018 00:00:00 4.88924 C 90.8750 % 3.53 C
313 25-12-2018 00:00:00 1.85208 C 93.1667 % 0.87 C
314 26-12-2018 00:00:00 -0.91736 C 95.5035 % -1.54 C
315 27-12-2018 00:00:00 0.08125 C 95.8090 % -0.51 C
316 28-12-2018 00:00:00 0.225 C 94.9375 % -0.49 C
317 29-12-2018 00:00:00 2.70972 C 93.3576 % 1.75 C
318 30-12-2018 00:00:00 7.50313 C 87.4271 % 5.55 C
319 31-12-2018 00:00:00 7.59271 C 96.4201 % 7.06 C
320 01-01-2019 00:00:00 7.09271 C 92.0833 % 5.9 C
321 02-01-2019 00:00:00 3.70104 C 82.7847 % 1.05 C
322 03-01-2019 00:00:00 2.03715 C 93.0000 % 1.03 C
323 04-01-2019 00:00:00 3.13785 C 91.9826 % 1.96 C
324 05-01-2019 00:00:00 5.92632 C 93.3825 % 4.94 C
325 06-01-2019 00:00:00 5.76944 C 91.7674 % 4.54 C
Sensor: Nr:Datum:Temp:Feuchte:Taupunkt:
Aussen-T/F 326 07-01-2019 00:00:00 5.50417 C 89.8819 % 3.98 C
327 08-01-2019 00:00:00 6.62222 C 85.9688 % 4.45 C
328 09-01-2019 00:00:00 3.90486 C 83.8368 % 1.43 C
329 10-01-2019 00:00:00 2.05694 C 83.7708 % -0.39 C
330 11-01-2019 00:00:00 2.82847 C 94.7882 % 2.08 C
331 12-01-2019 00:00:00 5.96702 C 92.9734 % 4.92 C
332 13-01-2019 00:00:00 7.73715 C 94.1493 % 6.86 C
333 14-01-2019 00:00:00 5.07083 C 89.5625 % 3.5 C
334 15-01-2019 00:00:00 4.78854 C 89.1007 % 3.15 C
335 16-01-2019 00:00:00 5.27187 C 85.4861 % 3.04 C
336 17-01-2019 00:00:00 5.0066 C 87.3924 % 3.09 C
337 18-01-2019 00:00:00 0.77569 C 91.8611 % -0.39 C
338 19-01-2019 00:00:00 -2.72396 C 93.3299 % -3.65 C
339 20-01-2019 00:00:00 -4.97187 C 92.8854 % -5.94 C
340 21-01-2019 00:00:00 -6.20972 C 93.8472 % -7.04 C
341 22-01-2019 00:00:00 -4.96667 C 92.0938 % -6.05 C
342 23-01-2019 00:00:00 -1.57743 C 89.4028 % -3.09 C
343 24-01-2019 00:00:00 -1.91736 C 83.8854 % -4.27 C
344 25-01-2019 00:00:00 0.28403 C 88.1354 % -1.44 C
345 26-01-2019 00:00:00 4.48229 C 92.3229 % 3.35 C
346 27-01-2019 00:00:00 5.94583 C 90.0868 % 4.45 C
347 28-01-2019 00:00:00 3.17118 C 90.8854 % 1.83 C
348 29-01-2019 00:00:00 1.73021 C 89.6875 % 0.22 C
349 30-01-2019 00:00:00 0.45972 C 93.3264 % -0.49 C
350 31-01-2019 00:00:00 -0.09826 C 94.7188 % -0.84 C
Sensor: Nr:Datum:Temp:Feuchte:Taupunkt:
Aussen-T/F 351 01-02-2019 00:00:00 1.74826 C 95.6389 % 1.13 C
352 02-02-2019 00:00:00 2.46701 C 96.8611 % 2.02 C
353 03-02-2019 00:00:00 2.7 C 88.6910 % 1.02 C
354 04-02-2019 00:00:00 1.83229 C 87.0625 % -0.09 C
355 05-02-2019 00:00:00 4.34375 C 81.1771 % 1.41 C
356 06-02-2019 00:00:00 1.17639 C 89.9688 % -0.28 C
357 07-02-2019 00:00:00 5.09549 C 88.0833 % 3.29 C
358 08-02-2019 00:00:00 7.42604 C 83.5417 % 4.83 C
359 09-02-2019 00:00:00 8.6309 C 79.8056 % 5.35 C
360 10-02-2019 00:00:00 7.96076 C 88.4965 % 6.18 C
361 11-02-2019 00:00:00 4.86736 C 86.4931 % 2.81 C
362 12-02-2019 00:00:00 3.71597 C 86.6563 % 1.7 C
363 13-02-2019 00:00:00 1.77951 C 91.5833 % 0.56 C
364 14-02-2019 00:00:00 0.77431 C 92.7674 % -0.26 C
365 15-02-2019 00:00:00 2.33854 C 89.2917 % 0.76 C

Maximal/Minimal-Werte vom 16.02.2018 - 15.02.2019

Sensor Min Max Avg
Temp
(Aussen-T/F)
-10.4 °C
27-02-2018  07:25:00
38.4 °C
07-08-2018  18:10:00
11.49 °C
Feuchte
(Aussen-T/F)
18 %
03-07-2018  17:25:00
98 %
16-02-2018  10:35:00
80.54 %
Taupunkt
(Aussen-T/F)
-11.99 C
28-02-2018  00:00:00
19.08 C
09-06-2018  00:00:00
8.04 C

Die Daten stammen von einer Davis Vantage Pro 2 Wetter-Station und werden unter Linux mit der Software wview2wettercgi und aufbereitet. Alle Angaben erfolgen ohne Gewähr für ihre Vollständigkeit oder Richtigkeit.
Kontakt: Rainer Krienke krienke@uni-koblenz.de . Meine Webseiten an der Uni Koblenz oder privat.
Version: $Revision: 0.78 $